Latest Weather Observations for Minlaton Airport

IDS60801

Issued at 12:02 pm CST Tuesday 26 May 2015 (issued every 30 minutes, with the page automatically refreshed every 10 minutes)

About weather observations | Map of weather stations | Latest weather observations for SA | Other Formats
Station Details ID: 022031 Name: MINLATON AERO Lat: -34.75 Lon: 137.53 Height: 32.0 m
Data from the previous 72 hours. | See also: Recent months at Minlaton Airport
Date/Time
CST
Temp
°C
App
Temp
°C
Dew
Point
Rel
Hum
%
Delta-T
°C
Wind Press
QNH
hPa
Press
MSL
hPa
Rain
since 9 am
mm
Dir
 
Spd
km/h
Gust
km/h
Spd
kts
Gust
kts
26/12:00pm 19.3 16.6 8.9 51 5.4 NW 13 19 7 10 1023.1 1023.1 0.0
26/11:30am 18.3 15.9 10.2 59 4.3 NW 13 15 7 8 1023.7 1023.7 0.0
26/11:00am 18.2 16.5 9.8 58 4.4 NW 9 15 5 8 1024.1 1024.1 0.0
26/10:30am 18.2 16.9 9.8 58 4.4 NNW 7 11 4 6 1024.4 1024.4 0.0
26/10:00am 17.4 14.9 9.8 61 4.0 N 13 15 7 8 1024.4 1024.4 0.0
26/09:30am 17.1 15.8 9.8 62 3.8 N 7 11 4 6 1024.5 1024.5 0.0
26/09:00am 15.5 14.2 9.8 69 3.0 NE 7 9 4 5 1024.8 1024.8 0.0
26/08:30am 13.3 11.5 9.5 78 1.9 NE 9 11 5 6 1025.0 1025.0 0.0
26/08:00am 12.4 9.7 9.1 80 1.7 NNE 13 13 7 7 1025.0 1025.0 0.0
26/07:30am 11.0 9.2 8.0 82 1.5 ENE 7 11 4 6 1024.6 1024.6 0.0
26/07:00am 10.9 9.8 6.8 76 1.9 SSW 2 6 1 3 1024.5 1024.5 0.0
26/06:30am 12.6 11.6 7.3 70 2.6 S 2 11 1 6 1024.5 1024.5 0.0
26/06:00am 13.3 10.3 7.7 69 2.7 NNE 13 17 7 9 1024.5 1024.5 0.0
26/05:30am 13.7 9.4 7.9 68 2.9 NNE 20 20 11 11 1024.4 1024.4 0.0
26/05:00am 13.5 9.9 8.4 71 2.5 NNE 17 19 9 10 1024.4 1024.4 0.0
26/04:30am 13.2 10.4 8.5 73 2.3 NNE 13 15 7 8 1024.5 1024.5 0.0
26/04:00am 13.2 10.5 9.1 76 2.1 NE 13 15 7 8 1024.6 1024.6 0.0
26/03:30am 13.4 10.8 9.3 76 2.1 NNE 13 15 7 8 1024.9 1024.9 0.0
26/03:00am 13.5 10.5 9.2 75 2.2 NNE 15 15 8 8 1025.0 1025.0 0.0
26/02:30am 13.7 10.4 9.6 76 2.1 NNE 17 19 9 10 1025.1 1025.1 0.0
26/02:00am 13.5 10.7 9.9 79 1.9 NE 15 17 8 9 1025.3 1025.3 0.0
26/01:30am 13.3 10.1 10.1 81 1.6 ENE 17 20 9 11 1025.3 1025.3 0.0
26/01:00am 13.3 10.3 10.5 83 1.5 NE 17 19 9 10 1025.7 1025.7 0.0
26/12:30am 12.5 9.4 10.2 86 1.2 ENE 17 19 9 10 1025.8 1025.8 0.0
26/12:00am 12.3 9.2 10.4 88 1.0 E 17 19 9 10 1025.8 1025.8 0.0
 
Date/Time
CST
Temp
°C
App
Temp
°C
Dew
Point
Rel
Hum
%
Delta-T
°C
Wind Press
QNH
hPa
Press
MSL
hPa
Rain
since 9 am
mm
Dir
 
Spd
km/h
Gust
km/h
Spd
kts
Gust
kts
25/11:30pm 11.8 8.2 10.0 89 0.9 E 19 20 10 11 1026.2 1026.2 0.0
25/11:00pm 11.8 8.0 9.9 88 1.0 E 20 22 11 12 1026.2 1026.2 0.0
25/10:30pm 12.0 8.2 9.7 86 1.2 E 20 22 11 12 1026.5 1026.5 0.0
25/10:00pm 11.9 8.3 9.8 87 1.1 E 19 20 10 11 1026.7 1026.7 0.0
25/09:30pm 12.0 8.7 9.7 86 1.2 E 17 19 9 10 1026.6 1026.6 0.0
25/09:00pm 12.3 8.7 9.7 84 1.3 E 19 20 10 11 1026.5 1026.5 0.0
25/08:30pm 12.2 8.7 8.7 79 1.7 ESE 17 20 9 11 1026.8 1026.8 0.0
25/08:00pm 12.2 9.1 9.0 81 1.6 E 15 17 8 9 1026.7 1026.7 0.0
25/07:30pm 12.1 9.0 8.8 80 1.6 E 15 17 8 9 1026.8 1026.8 0.0
25/07:00pm 12.2 9.5 9.0 81 1.6 E 13 15 7 8 1026.7 1026.7 0.0
25/06:30pm 12.5 10.2 9.1 80 1.7 E 11 13 6 7 1026.3 1026.3 0.0
25/06:00pm 13.2 10.9 9.1 76 2.1 E 11 11 6 6 1026.4 1026.4 0.0
25/05:30pm 13.5 12.0 9.2 75 2.2 ESE 7 11 4 6 1026.1 1026.1 0.0
25/05:00pm 15.3 14.1 9.4 68 3.0 SW 6 7 3 4 1026.0 1026.0 0.0
25/04:30pm 15.8 14.4 9.5 66 3.2 SW 7 9 4 5 1026.1 1026.1 0.0
25/04:00pm 16.1 14.8 10.0 67 3.2 SW 7 9 4 5 1025.8 1025.8 0.0
25/03:30pm 16.8 15.7 10.0 64 3.6 W 6 9 3 5 1025.5 1025.5 0.0
25/03:00pm 17.2 15.0 9.4 60 4.1 WNW 11 15 6 8 1025.6 1025.6 0.0
25/02:30pm 17.7 14.8 9.6 59 4.2 WNW 15 17 8 9 1025.6 1025.6 0.0
25/02:00pm 17.7 13.7 8.3 54 4.8 WNW 19 22 10 12 1025.7 1025.7 0.0
25/01:30pm 18.5 14.6 7.0 47 5.7 WNW 17 20 9 11 1025.9 1025.9 0.0
25/01:00pm 18.5 14.2 7.0 47 5.8 NW 19 22 10 12 1026.2 1026.2 0.0
25/12:30pm 18.7 16.2 8.1 50 5.4 NW 11 19 6 10 1026.4 1026.4 0.0
25/12:00pm 18.5 16.7 7.3 48 5.6 NW 6 13 3 7 1026.4 1026.4 0.0
25/11:30am 18.1 15.4 7.2 49 5.4 N 11 17 6 9 1027.3 1027.3 0.0
25/11:00am 17.6 14.5 7.4 51 5.1 N 13 15 7 8 1027.8 1027.8 0.0
25/10:30am 17.2 13.5 7.8 54 4.7 N 17 20 9 11 1028.4 1028.3 0.0
25/10:00am 16.3 12.7 8.3 59 4.1 NNE 17 20 9 11 1028.4 1028.3 0.0
25/09:30am 15.2 11.1 8.7 65 3.3 NE 20 24 11 13 1028.4 1028.3 0.0
25/09:00am 13.9 10.1 9.1 73 2.4 NE 19 20 10 11 1028.7 1028.6 0.0
25/08:30am 12.3 8.5 9.1 81 1.6 ENE 19 22 10 12 1028.5 1028.4 0.0
25/08:00am 11.1 7.3 9.0 87 1.0 ENE 19 20 10 11 1028.4 1028.3 0.0
25/07:30am 10.2 6.1 8.5 89 0.8 ENE 20 20 11 11 1028.1 1028.1 0.0
25/07:00am 9.7 5.7 8.3 91 0.7 ENE 19 20 10 11 1027.9 1027.9 0.0
25/06:30am 9.4 5.3 8.0 91 0.7 ENE 19 19 10 10 1027.8 1027.8 0.0
25/06:00am 9.6 5.5 7.9 89 0.8 ENE 19 20 10 11 1027.5 1027.5 0.0
25/05:30am 9.7 5.4 7.8 88 0.9 ENE 20 20 11 11 1027.4 1027.4 0.0
25/05:00am 9.7 5.4 6.8 82 1.4 ENE 19 20 10 11 1027.3 1027.3 0.0
25/04:30am 10.2 5.6 6.7 79 1.6 ENE 20 22 11 12 1027.2 1027.2 0.0
25/04:00am 10.3 7.1 6.8 79 1.7 ENE 13 15 7 8 1027.3 1027.3 0.0
25/03:30am 11.4 7.8 6.9 74 2.1 ENE 15 17 8 9 1027.3 1027.3 0.0
25/03:00am 11.7 8.7 7.8 77 1.9 ENE 13 15 7 8 1027.4 1027.4 0.0
25/02:30am 12.1 9.2 8.2 77 1.9 ENE 13 15 7 8 1027.6 1027.6 0.0
25/02:00am 12.4 8.8 8.3 76 2.0 ENE 17 17 9 9 1027.7 1027.7 0.0
25/01:30am 12.3 8.8 8.6 78 1.8 ENE 17 19 9 10 1027.9 1027.9 0.0
25/01:00am 12.2 9.1 8.7 79 1.7 ENE 15 15 8 8 1028.1 1028.1 0.0
25/12:30am 12.3 9.6 9.0 80 1.6 ENE 13 15 7 8 1028.2 1028.2 0.0
25/12:00am 12.4 9.3 8.7 78 1.8 ENE 15 19 8 10 1028.1 1028.1 0.0
 
Date/Time
CST
Temp
°C
App
Temp
°C
Dew
Point
Rel
Hum
%
Delta-T
°C
Wind Press
QNH
hPa
Press
MSL
hPa
Rain
since 9 am
mm
Dir
 
Spd
km/h
Gust
km/h
Spd
kts
Gust
kts
24/11:30pm 12.5 8.6 8.8 78 1.8 NE 19 20 10 11 1028.1 1028.1 0.0
24/11:00pm 12.4 9.3 8.9 79 1.8 ENE 15 17 8 9 1028.0 1028.0 0.0
24/10:30pm 12.6 9.5 8.7 77 1.9 ENE 15 19 8 10 1027.8 1027.8 0.0
24/10:00pm 12.8 9.3 8.9 77 2.0 ENE 17 20 9 11 1028.0 1028.0 0.0
24/09:30pm 12.6 9.1 8.7 77 1.9 ENE 17 19 9 10 1027.9 1027.9 0.0
24/09:00pm 12.5 8.7 9.0 79 1.7 NE 19 22 10 12 1028.0 1028.0 0.0
24/08:30pm 12.5 9.0 8.6 77 1.9 ENE 17 19 9 10 1027.6 1027.6 0.0
24/08:00pm 12.3 8.3 8.4 77 1.9 ENE 19 20 10 11 1027.6 1027.6 0.0
24/07:30pm 12.3 9.1 8.4 77 1.9 E 15 17 8 9 1027.5 1027.5 0.0
24/07:00pm 12.3 8.7 8.4 77 1.9 E 17 17 9 9 1027.6 1027.6 0.0
24/06:30pm 12.2 10.1 8.3 77 1.9 NE 9 11 5 6 1027.5 1027.5 0.0
24/06:00pm 12.5 10.8 8.4 76 2.0 NE 7 9 4 5 1027.7 1027.7 0.0
24/05:30pm 13.3 11.7 8.8 74 2.2 N 7 9 4 5 1027.8 1027.8 0.0
24/05:00pm 13.7 12.0 8.5 71 2.6 N 7 9 4 5 1027.5 1027.5 0.0
24/04:30pm 14.5 11.7 8.5 67 3.0 NNW 13 15 7 8 1027.5 1027.5 0.0
24/04:00pm 15.4 12.6 8.4 63 3.5 N 13 17 7 9 1027.1 1027.1 0.0
24/03:30pm 15.0 12.2 10.0 72 2.6 N 15 20 8 11 1027.2 1027.2 0.0
24/03:00pm 14.7 11.4 9.5 71 2.7 N 17 20 9 11 1027.1 1027.1 0.0
24/02:30pm 14.7 11.3 9.3 70 2.8 N 17 22 9 12 1026.9 1026.9 0.0
24/02:00pm 14.8 10.9 9.4 70 2.8 N 20 24 11 13 1027.0 1027.0 0.0
24/01:30pm 15.1 11.1 9.2 68 3.0 NNW 20 24 11 13 1027.2 1027.2 0.0
24/01:00pm 15.3 11.0 7.8 61 3.7 NNW 20 26 11 14 1027.3 1027.3 0.0
24/12:30pm 15.5 10.9 8.3 62 3.6 NNW 22 28 12 15 1027.8 1027.8 0.0
24/12:00pm 15.8 11.7 8.8 63 3.6 NNW 20 24 11 13 1028.0 1028.0 0.0
24/11:30am 15.5 12.7 8.5 63 3.5 N 13 19 7 10 1028.2 1028.2 0.0
24/11:00am 15.1 11.0 7.9 62 3.6 N 19 24 10 13 1028.4 1028.3 0.0
24/10:30am 14.0 9.7 8.0 67 3.0 NNE 20 24 11 13 1028.4 1028.3 0.0
24/10:00am 13.5 9.4 7.7 68 2.9 NNE 19 24 10 13 1028.4 1028.3 0.0
24/09:30am 11.7 8.5 8.4 80 1.6 NNE 15 19 8 10 1028.2 1028.2 0.0
24/09:00am 11.1 8.5 7.8 80 1.6 NE 11 13 6 7 1028.1 1028.1 0.0
24/08:30am 11.3 8.9 7.2 76 2.0 N 9 13 5 7 1028.2 1028.2 0.0
24/08:00am 10.8 8.5 7.5 80 1.6 N 9 13 5 7 1028.0 1028.0 0.0
24/07:30am 9.5 5.8 6.2 80 1.5 NE 15 17 8 9 1027.7 1027.7 0.0
24/07:00am 9.8 4.8 6.3 79 1.6 NE 22 26 12 14 1027.2 1027.2 0.0
24/06:30am 9.3 4.6 6.2 81 1.4 NE 20 24 11 13 1027.1 1027.1 0.0
24/06:00am 8.9 3.5 6.2 83 1.2 NE 24 26 13 14 1027.0 1027.0 0.0
24/05:30am 9.2 4.6 6.3 82 1.3 NE 20 26 11 14 1027.1 1027.1 0.0
24/05:00am 9.3 4.4 6.7 84 1.2 ENE 22 26 12 14 1026.9 1026.9 0.0
24/04:30am 9.2 3.9 6.6 84 1.2 NE 24 28 13 15 1026.7 1026.7 0.0
24/04:00am 9.2 3.5 6.6 84 1.2 NE 26 30 14 16 1026.5 1026.5 0.0
24/03:30am 9.3 3.6 6.6 83 1.2 NE 26 32 14 17 1026.6 1026.6 0.0
24/03:00am 9.3 3.6 6.7 84 1.2 NE 26 30 14 16 1026.7 1026.7 0.0
24/02:30am 9.6 3.9 6.9 83 1.3 NE 26 30 14 16 1026.9 1026.9 0.0
24/02:00am 9.8 4.1 6.9 82 1.4 NE 26 30 14 16 1027.0 1027.0 0.0
24/01:30am 9.9 4.0 7.3 84 1.2 NE 28 32 15 17 1027.1 1027.1 0.0
24/01:00am 9.7 4.2 7.6 87 1.0 NE 26 30 14 16 1027.2 1027.2 0.0
24/12:30am 9.6 5.3 7.9 89 0.8 ENE 20 24 11 13 1027.4 1027.4 0.0
24/12:00am 9.3 5.0 7.9 91 0.7 ENE 20 22 11 12 1027.6 1027.6 0.0
 
Date/Time
CST
Temp
°C
App
Temp
°C
Dew
Point
Rel
Hum
%
Delta-T
°C
Wind Press
QNH
hPa
Press
MSL
hPa
Rain
since 9 am
mm
Dir
 
Spd
km/h
Gust
km/h
Spd
kts
Gust
kts
23/11:30pm 9.8 5.2 8.2 90 0.8 ENE 22 24 12 13 1027.5 1027.5 0.0
23/11:00pm 9.6 5.6 8.2 91 0.7 E 19 20 10 11 1027.7 1027.7 0.0
23/10:30pm 9.4 5.4 8.2 92 0.6 E 19 22 10 12 1027.8 1027.8 0.0
23/10:00pm 9.4 5.3 8.0 91 0.7 E 19 20 10 11 1028.1 1028.1 0.0
23/09:30pm 9.0 6.0 7.5 90 0.7 E 13 15 7 8 1028.4 1028.3 0.0
23/09:00pm 9.4 7.2 7.7 89 0.8 NE 9 11 5 6 1028.5 1028.4 0.0
23/08:30pm 9.6 8.4 7.9 89 0.8 NW 4 7 2 4 1028.8 1028.7 0.0
23/08:00pm 10.1 7.6 8.0 87 1.0 ENE 11 15 6 8 1028.8 1028.7 0.0
23/07:30pm 10.7 7.1 8.5 86 1.1 E 17 19 9 10 1028.2 1028.2 0.0
23/07:00pm 11.0 7.1 8.6 85 1.2 E 19 20 10 11 1028.0 1028.0 0.0
23/06:30pm 11.1 7.5 8.5 84 1.3 E 17 19 9 10 1027.9 1027.9 0.0
23/06:00pm 11.6 7.6 8.1 79 1.7 E 19 20 10 11 1027.9 1027.9 0.0
23/05:30pm 11.9 9.8 8.2 78 1.8 E 9 11 5 6 1028.1 1028.1 0.0
23/05:00pm 13.2 11.6 8.7 74 2.3 S 7 11 4 6 1028.4 1028.3 0.0
23/04:30pm 14.2 12.2 8.8 70 2.7 SSW 9 11 5 6 1028.5 1028.4 0.0
23/04:00pm 15.1 12.7 8.8 66 3.2 W 11 13 6 7 1028.5 1028.4 0.0
23/03:30pm 15.9 12.7 8.6 62 3.7 WNW 15 17 8 9 1028.5 1028.4 0.0
23/03:00pm 17.2 15.2 8.6 57 4.4 NW 9 13 5 7 1028.5 1028.4 0.0
23/02:30pm 16.6 13.8 8.6 59 4.1 NNW 13 17 7 9 1028.6 1028.5 0.0
23/02:00pm 16.8 13.6 8.5 58 4.2 NW 15 20 8 11 1028.9 1028.8 0.0
23/01:30pm 17.1 13.5 6.9 51 5.0 N 15 20 8 11 1029.1 1029.0 0.0
23/01:00pm 17.1 13.8 8.0 55 4.6 N 15 20 8 11 1029.3 1029.2 0.0
23/12:30pm 16.4 12.9 7.3 55 4.5 NNE 15 24 8 13 1029.6 1029.5 0.0

Other Formats:

Comma delimited format used in spreadsheet applications
http://www.bom.gov.au/fwo/IDS60801/IDS60801.95659.axf

JavaScript Object Notation format (JSON) in row-major order
http://www.bom.gov.au/fwo/IDS60801/IDS60801.95659.json